createdAt,value
2023-01-29T00:00:13.388Z,1031.59
2023-01-29T00:01:13.208Z,1031.59
2023-01-29T00:02:13.290Z,1031.5
2023-01-29T00:03:13.333Z,1031.51
2023-01-29T00:04:13.209Z,1031.58
2023-01-29T00:05:26.927Z,1031.61
2023-01-29T00:06:13.307Z,1031.64
2023-01-29T00:07:13.201Z,1031.66
2023-01-29T00:08:13.219Z,1031.66
2023-01-29T00:09:13.215Z,1031.56
2023-01-29T00:10:13.394Z,1031.59
2023-01-29T00:11:13.196Z,1031.56
2023-01-29T00:12:13.205Z,1031.54
2023-01-29T00:13:13.213Z,1031.5
2023-01-29T00:14:13.195Z,1031.53
2023-01-29T00:15:13.221Z,1031.51
2023-01-29T00:16:13.197Z,1031.5
2023-01-29T00:17:13.277Z,1031.47
2023-01-29T00:18:13.335Z,1031.45
2023-01-29T00:19:13.194Z,1031.41
2023-01-29T00:20:13.249Z,1031.41
2023-01-29T00:21:13.213Z,1031.42
2023-01-29T00:22:13.200Z,1031.35
2023-01-29T00:23:13.209Z,1031.34
2023-01-29T00:24:13.295Z,1031.3
2023-01-29T00:25:13.204Z,1031.38
2023-01-29T00:26:13.211Z,1031.29
2023-01-29T00:27:13.218Z,1031.32
2023-01-29T00:28:13.215Z,1031.3
2023-01-29T00:29:13.196Z,1031.24
2023-01-29T00:30:13.381Z,1031.26
2023-01-29T00:31:13.293Z,1031.27
2023-01-29T00:32:13.309Z,1031.28
2023-01-29T00:33:13.219Z,1031.29
2023-01-29T00:34:13.220Z,1031.21
2023-01-29T00:35:13.212Z,1031.24
2023-01-29T00:36:13.223Z,1031.25
2023-01-29T00:37:13.206Z,1031.22
2023-01-29T00:38:13.229Z,1031.2
2023-01-29T00:39:13.224Z,1031.24
2023-01-29T00:40:13.290Z,1031.24
2023-01-29T00:41:13.199Z,1031.2
2023-01-29T00:42:13.213Z,1031.18
2023-01-29T00:43:13.222Z,1031.14
2023-01-29T00:44:13.220Z,1031.11
2023-01-29T00:45:13.204Z,1031.12
2023-01-29T00:46:13.233Z,1031.1
2023-01-29T00:47:13.214Z,1031.12
2023-01-29T00:48:13.255Z,1031.12
2023-01-29T00:49:13.209Z,1031.13
2023-01-29T00:50:13.256Z,1031.09
2023-01-29T00:51:13.219Z,1031.08
2023-01-29T00:52:13.216Z,1031.04
2023-01-29T00:53:13.237Z,1030.98
2023-01-29T00:54:13.231Z,1030.98
2023-01-29T00:55:13.223Z,1030.99
2023-01-29T00:56:13.206Z,1030.89
2023-01-29T00:57:13.217Z,1030.93
2023-01-29T00:58:13.231Z,1030.94
2023-01-29T00:59:13.209Z,1030.97
2023-01-29T01:00:13.201Z,1030.94
2023-01-29T01:01:13.254Z,1030.95
2023-01-29T01:02:13.233Z,1030.91
2023-01-29T01:03:13.231Z,1030.91
2023-01-29T01:04:13.204Z,1030.84
2023-01-29T01:05:13.210Z,1030.87
2023-01-29T01:06:13.216Z,1030.83
2023-01-29T01:07:13.219Z,1030.83
2023-01-29T01:08:13.225Z,1030.83
2023-01-29T01:09:13.231Z,1030.8
2023-01-29T01:10:13.383Z,1030.8
2023-01-29T01:11:13.210Z,1030.78
2023-01-29T01:12:13.208Z,1030.79
2023-01-29T01:13:13.229Z,1030.8
2023-01-29T01:14:13.206Z,1030.79
2023-01-29T01:15:13.205Z,1030.77
2023-01-29T01:16:13.234Z,1030.77
2023-01-29T01:17:13.212Z,1030.77
2023-01-29T01:18:13.216Z,1030.73
2023-01-29T01:19:13.197Z,1030.75
2023-01-29T01:20:13.203Z,1030.75
2023-01-29T01:21:13.195Z,1030.75
2023-01-29T01:22:13.196Z,1030.78
2023-01-29T01:23:13.233Z,1030.73
2023-01-29T01:24:13.263Z,1030.72
2023-01-29T01:25:13.198Z,1030.71
2023-01-29T01:26:14.214Z,1030.68
2023-01-29T01:27:13.205Z,1030.72
2023-01-29T01:28:13.219Z,1030.67
2023-01-29T01:29:13.193Z,1030.67
2023-01-29T01:30:13.404Z,1030.69
2023-01-29T01:31:13.373Z,1030.69
2023-01-29T01:32:13.191Z,1030.71
2023-01-29T01:33:13.209Z,1030.69
2023-01-29T01:34:13.211Z,1030.69
2023-01-29T01:35:13.197Z,1030.71
2023-01-29T01:36:13.192Z,1030.7
2023-01-29T01:37:13.199Z,1030.65
2023-01-29T01:38:13.218Z,1030.64
2023-01-29T01:39:13.313Z,1030.63
2023-01-29T01:40:13.374Z,1030.64
2023-01-29T01:41:13.202Z,1030.63
2023-01-29T01:42:13.230Z,1030.58
2023-01-29T01:43:13.216Z,1030.6
2023-01-29T01:44:13.197Z,1030.63
2023-01-29T01:45:13.194Z,1030.62
2023-01-29T01:46:13.250Z,1030.65
2023-01-29T01:47:13.214Z,1030.63
2023-01-29T01:48:13.241Z,1030.62
2023-01-29T01:49:13.210Z,1030.63
2023-01-29T01:50:13.307Z,1030.68
2023-01-29T01:51:13.218Z,1030.64
2023-01-29T01:52:13.209Z,1030.66
2023-01-29T01:53:13.230Z,1030.67
2023-01-29T01:54:13.225Z,1030.67
2023-01-29T01:55:13.215Z,1030.64
2023-01-29T01:56:13.212Z,1030.64
2023-01-29T01:57:13.210Z,1030.65
2023-01-29T01:58:13.226Z,1030.65
2023-01-29T01:59:13.207Z,1030.69
2023-01-29T02:00:13.375Z,1030.67
2023-01-29T02:01:13.270Z,1030.67
2023-01-29T02:02:13.238Z,1030.69
2023-01-29T02:03:13.234Z,1030.68
2023-01-29T02:04:13.207Z,1030.67
2023-01-29T02:05:13.208Z,1030.66
2023-01-29T02:06:13.213Z,1030.67
2023-01-29T02:07:13.211Z,1030.65
2023-01-29T02:08:13.226Z,1030.65
2023-01-29T02:09:13.227Z,1030.68
2023-01-29T02:10:13.367Z,1030.72
2023-01-29T02:11:13.212Z,1030.74
2023-01-29T02:12:13.202Z,1030.72
2023-01-29T02:13:13.218Z,1030.75
2023-01-29T02:14:13.202Z,1030.78
2023-01-29T02:15:13.258Z,1030.82
2023-01-29T02:16:13.195Z,1030.82
2023-01-29T02:17:13.270Z,1030.78
2023-01-29T02:18:13.225Z,1030.81
2023-01-29T02:19:13.208Z,1030.84
2023-01-29T02:20:13.209Z,1030.82
2023-01-29T02:21:13.218Z,1030.85
2023-01-29T02:22:13.214Z,1030.84
2023-01-29T02:23:13.230Z,1030.83
2023-01-29T02:24:13.322Z,1030.85
2023-01-29T02:25:13.214Z,1030.81
2023-01-29T02:26:13.233Z,1030.75
2023-01-29T02:27:13.206Z,1030.78
2023-01-29T02:28:13.219Z,1030.71
2023-01-29T02:29:13.204Z,1030.71
2023-01-29T02:30:13.203Z,1030.69
2023-01-29T02:31:13.243Z,1030.63
2023-01-29T02:32:13.195Z,1030.59
2023-01-29T02:33:13.229Z,1030.58
2023-01-29T02:34:13.209Z,1030.49
2023-01-29T02:35:13.199Z,1030.49
2023-01-29T02:36:13.203Z,1030.49
2023-01-29T02:37:13.205Z,1030.54
2023-01-29T02:38:13.255Z,1030.54
2023-01-29T02:39:13.218Z,1030.56
2023-01-29T02:40:13.424Z,1030.59
2023-01-29T02:41:13.200Z,1030.6
2023-01-29T02:42:13.204Z,1030.59
2023-01-29T02:43:13.219Z,1030.56
2023-01-29T02:44:13.199Z,1030.57
2023-01-29T02:45:13.209Z,1030.58
2023-01-29T02:46:13.379Z,1030.56
2023-01-29T02:47:13.195Z,1030.52
2023-01-29T02:48:13.245Z,1030.56
2023-01-29T02:49:13.206Z,1030.61
2023-01-29T02:50:13.226Z,1030.63
2023-01-29T02:51:13.206Z,1030.64
2023-01-29T02:52:13.208Z,1030.67
2023-01-29T02:53:13.215Z,1030.68
2023-01-29T02:54:13.217Z,1030.67
2023-01-29T02:55:13.254Z,1030.63
2023-01-29T02:56:13.202Z,1030.55
2023-01-29T02:57:13.199Z,1030.54
2023-01-29T02:58:13.208Z,1030.5
2023-01-29T02:59:13.210Z,1030.46
2023-01-29T03:00:13.399Z,1030.46
2023-01-29T03:01:13.258Z,1030.44
2023-01-29T03:02:13.345Z,1030.48
2023-01-29T03:03:13.224Z,1030.48
2023-01-29T03:04:13.200Z,1030.47
2023-01-29T03:05:13.202Z,1030.43
2023-01-29T03:06:13.313Z,1030.43
2023-01-29T03:07:13.205Z,1030.39
2023-01-29T03:08:13.215Z,1030.39
2023-01-29T03:09:13.221Z,1030.36
2023-01-29T03:10:13.471Z,1030.4
2023-01-29T03:11:13.210Z,1030.42
2023-01-29T03:12:13.212Z,1030.44
2023-01-29T03:13:13.228Z,1030.48
2023-01-29T03:14:13.207Z,1030.5
2023-01-29T03:15:13.214Z,1030.55
2023-01-29T03:16:13.296Z,1030.57
2023-01-29T03:17:13.216Z,1030.52
2023-01-29T03:18:13.222Z,1030.54
2023-01-29T03:19:13.215Z,1030.5
2023-01-29T03:20:13.365Z,1030.41
2023-01-29T03:21:13.212Z,1030.42
2023-01-29T03:22:13.216Z,1030.41
2023-01-29T03:23:13.210Z,1030.43
2023-01-29T03:24:13.298Z,1030.39
2023-01-29T03:25:13.222Z,1030.42
2023-01-29T03:26:13.207Z,1030.42
2023-01-29T03:27:13.210Z,1030.35
2023-01-29T03:28:13.229Z,1030.35
2023-01-29T03:29:13.215Z,1030.38
2023-01-29T03:30:13.270Z,1030.42
2023-01-29T03:31:13.235Z,1030.42
2023-01-29T03:32:13.273Z,1030.46
2023-01-29T03:33:13.224Z,1030.42
2023-01-29T03:34:13.219Z,1030.43
2023-01-29T03:35:13.217Z,1030.39
2023-01-29T03:36:13.217Z,1030.4
2023-01-29T03:37:13.198Z,1030.35
2023-01-29T03:38:13.231Z,1030.37
2023-01-29T03:39:13.223Z,1030.43
2023-01-29T03:40:13.237Z,1030.45
2023-01-29T03:41:13.220Z,1030.42
2023-01-29T03:42:13.219Z,1030.41
2023-01-29T03:43:13.227Z,1030.42
2023-01-29T03:44:13.209Z,1030.48
2023-01-29T03:45:13.213Z,1030.49
2023-01-29T03:46:13.260Z,1030.49
2023-01-29T03:47:13.210Z,1030.52
2023-01-29T03:48:13.241Z,1030.57
2023-01-29T03:49:13.205Z,1030.57
2023-01-29T03:50:13.276Z,1030.63
2023-01-29T03:51:13.208Z,1030.63
2023-01-29T03:52:13.210Z,1030.63
2023-01-29T03:53:13.239Z,1030.61
2023-01-29T03:54:13.233Z,1030.61
2023-01-29T03:55:13.213Z,1030.61
2023-01-29T03:56:13.203Z,1030.61
2023-01-29T03:57:13.209Z,1030.61
2023-01-29T03:58:13.234Z,1030.58
2023-01-29T03:59:13.214Z,1030.54
2023-01-29T04:00:13.204Z,1030.57
2023-01-29T04:01:13.257Z,1030.57
2023-01-29T04:02:13.206Z,1030.64
2023-01-29T04:03:13.223Z,1030.68
2023-01-29T04:04:13.272Z,1030.71
2023-01-29T04:05:13.201Z,1030.69
2023-01-29T04:06:13.209Z,1030.66
2023-01-29T04:07:13.198Z,1030.68
2023-01-29T04:08:13.221Z,1030.68
2023-01-29T04:09:13.212Z,1030.62
2023-01-29T04:10:13.351Z,1030.66
2023-01-29T04:11:13.204Z,1030.62
2023-01-29T04:12:13.199Z,1030.6
2023-01-29T04:13:13.233Z,1030.59
2023-01-29T04:14:13.236Z,1030.55
2023-01-29T04:15:13.205Z,1030.51
2023-01-29T04:16:13.221Z,1030.49
2023-01-29T04:17:13.209Z,1030.47
2023-01-29T04:18:13.217Z,1030.47
2023-01-29T04:19:13.200Z,1030.49
2023-01-29T04:20:13.217Z,1030.48
2023-01-29T04:21:13.202Z,1030.46
2023-01-29T04:22:13.220Z,1030.43
2023-01-29T04:23:13.216Z,1030.4
2023-01-29T04:24:13.294Z,1030.4
2023-01-29T04:25:13.208Z,1030.41
2023-01-29T04:26:13.212Z,1030.39
2023-01-29T04:27:13.205Z,1030.43
2023-01-29T04:28:13.220Z,1030.41
2023-01-29T04:29:13.209Z,1030.34
2023-01-29T04:30:13.224Z,1030.34
2023-01-29T04:31:13.422Z,1030.34
2023-01-29T04:32:13.236Z,1030.27
2023-01-29T04:33:13.225Z,1030.27
2023-01-29T04:34:13.209Z,1030.24
2023-01-29T04:35:13.212Z,1030.18
2023-01-29T04:36:13.208Z,1030.15
2023-01-29T04:37:13.214Z,1030.15
2023-01-29T04:38:13.221Z,1030.2
2023-01-29T04:39:13.232Z,1030.18
2023-01-29T04:40:13.391Z,1030.17
2023-01-29T04:41:13.221Z,1030.15
2023-01-29T04:42:13.219Z,1030.14
2023-01-29T04:43:13.227Z,1030.19
2023-01-29T04:44:13.200Z,1030.19
2023-01-29T04:45:13.221Z,1030.14
2023-01-29T04:46:13.238Z,1030.12
2023-01-29T04:47:13.246Z,1030.1
2023-01-29T04:48:13.245Z,1030.12
2023-01-29T04:49:13.225Z,1030.09
2023-01-29T04:50:13.205Z,1030.03
2023-01-29T04:51:13.210Z,1030.09
2023-01-29T04:52:13.218Z,1030.11
2023-01-29T04:53:13.230Z,1030.13
2023-01-29T04:54:13.223Z,1030.08
2023-01-29T04:55:13.207Z,1030.19
2023-01-29T04:56:13.215Z,1030.2
2023-01-29T04:57:13.215Z,1030.16
2023-01-29T04:58:13.217Z,1030.16
2023-01-29T04:59:13.212Z,1030.11
2023-01-29T05:00:13.441Z,1030.11
2023-01-29T05:01:13.213Z,1030.04
2023-01-29T05:02:13.214Z,1030.09
2023-01-29T05:03:13.218Z,1030.03
2023-01-29T05:04:13.214Z,1030.06
2023-01-29T05:05:13.212Z,1030.08
2023-01-29T05:06:13.211Z,1030.01
2023-01-29T05:07:13.216Z,1030.01
2023-01-29T05:08:13.243Z,1030.01
2023-01-29T05:09:13.226Z,1030.01
2023-01-29T05:10:13.200Z,1030.01
2023-01-29T05:11:13.205Z,1029.95
2023-01-29T05:12:13.203Z,1029.94
2023-01-29T05:13:13.232Z,1029.94
2023-01-29T05:14:13.199Z,1029.94
2023-01-29T05:15:13.196Z,1029.95
2023-01-29T05:16:13.472Z,1029.88
2023-01-29T05:17:13.206Z,1029.82
2023-01-29T05:18:13.217Z,1029.75
2023-01-29T05:19:13.207Z,1029.7
2023-01-29T05:20:13.251Z,1029.63
2023-01-29T05:21:13.201Z,1029.63
2023-01-29T05:22:13.322Z,1029.57
2023-01-29T05:23:13.241Z,1029.57
2023-01-29T05:24:13.282Z,1029.61
2023-01-29T05:25:13.204Z,1029.58
2023-01-29T05:26:13.206Z,1029.55
2023-01-29T05:27:13.218Z,1029.56
2023-01-29T05:28:13.219Z,1029.56
2023-01-29T05:29:13.197Z,1029.55
2023-01-29T05:30:13.212Z,1029.51
2023-01-29T05:31:13.371Z,1029.51
2023-01-29T05:32:13.200Z,1029.45
2023-01-29T05:33:13.236Z,1029.46
2023-01-29T05:34:13.204Z,1029.44
2023-01-29T05:35:13.200Z,1029.47
2023-01-29T05:36:13.203Z,1029.44
2023-01-29T05:37:13.212Z,1029.4
2023-01-29T05:38:13.233Z,1029.41
2023-01-29T05:39:13.333Z,1029.35
2023-01-29T05:40:13.230Z,1029.45
2023-01-29T05:41:13.202Z,1029.43
2023-01-29T05:42:13.211Z,1029.52
2023-01-29T05:43:13.230Z,1029.51
2023-01-29T05:44:13.216Z,1029.49
2023-01-29T05:45:13.216Z,1029.48
2023-01-29T05:46:13.279Z,1029.48
2023-01-29T05:47:13.221Z,1029.43
2023-01-29T05:48:13.236Z,1029.43
2023-01-29T05:49:13.208Z,1029.43
2023-01-29T05:50:13.211Z,1029.47
2023-01-29T05:51:13.215Z,1029.51
2023-01-29T05:52:13.200Z,1029.54
2023-01-29T05:53:13.221Z,1029.57
2023-01-29T05:54:13.235Z,1029.58
2023-01-29T05:55:13.213Z,1029.55
2023-01-29T05:56:13.216Z,1029.51
2023-01-29T05:57:13.222Z,1029.52
2023-01-29T05:58:13.235Z,1029.5
2023-01-29T05:59:13.207Z,1029.46
2023-01-29T06:00:13.288Z,1029.42
2023-01-29T06:01:13.202Z,1029.42
2023-01-29T06:02:13.254Z,1029.39
2023-01-29T06:03:13.296Z,1029.42
2023-01-29T06:04:13.211Z,1029.45
2023-01-29T06:05:13.205Z,1029.44
2023-01-29T06:06:13.215Z,1029.47
2023-01-29T06:07:13.202Z,1029.45
2023-01-29T06:08:13.228Z,1029.45
2023-01-29T06:09:13.241Z,1029.56
2023-01-29T06:10:13.221Z,1029.56
2023-01-29T06:11:13.215Z,1029.59
2023-01-29T06:12:13.212Z,1029.67
2023-01-29T06:13:13.230Z,1029.61
2023-01-29T06:14:13.213Z,1029.73
2023-01-29T06:15:13.203Z,1029.74
2023-01-29T06:16:13.255Z,1029.68
2023-01-29T06:17:13.215Z,1029.71
2023-01-29T06:18:13.222Z,1029.71
2023-01-29T06:19:13.202Z,1029.74
2023-01-29T06:20:13.232Z,1029.74
2023-01-29T06:21:13.209Z,1029.85
2023-01-29T06:22:13.217Z,1029.85
2023-01-29T06:23:13.224Z,1029.84
2023-01-29T06:24:13.264Z,1029.8
2023-01-29T06:25:13.211Z,1029.8
2023-01-29T06:26:13.208Z,1029.86
2023-01-29T06:27:13.194Z,1029.85
2023-01-29T06:28:13.250Z,1029.85
2023-01-29T06:29:13.201Z,1029.86
2023-01-29T06:30:13.212Z,1029.89
2023-01-29T06:31:36.304Z,1029.93
2023-01-29T06:32:13.259Z,1029.87
2023-01-29T06:33:13.217Z,1029.9
2023-01-29T06:34:13.203Z,1029.91
2023-01-29T06:35:13.194Z,1029.88
2023-01-29T06:36:13.203Z,1029.84
2023-01-29T06:37:13.211Z,1029.89
2023-01-29T06:38:13.251Z,1029.93
2023-01-29T06:39:13.219Z,1029.9
2023-01-29T06:40:13.210Z,1029.91
2023-01-29T06:41:13.206Z,1029.96
2023-01-29T06:42:13.205Z,1029.92
2023-01-29T06:43:13.251Z,1029.91
2023-01-29T06:44:13.212Z,1029.88
2023-01-29T06:45:13.224Z,1029.92
2023-01-29T06:46:13.197Z,1029.91
2023-01-29T06:47:13.194Z,1029.91
2023-01-29T06:48:13.218Z,1029.96
2023-01-29T06:49:13.209Z,1029.96
2023-01-29T06:50:13.289Z,1029.98
2023-01-29T06:51:13.204Z,1030.01
2023-01-29T06:52:13.211Z,1030.01
2023-01-29T06:53:13.235Z,1030.02
2023-01-29T06:54:13.225Z,1030.1
2023-01-29T06:55:13.221Z,1030.16
2023-01-29T06:56:13.204Z,1030.18
2023-01-29T06:57:13.240Z,1030.2
2023-01-29T06:58:13.228Z,1030.18
2023-01-29T06:59:13.215Z,1030.22
2023-01-29T07:00:13.215Z,1030.24
2023-01-29T07:01:29.022Z,1030.32
2023-01-29T07:02:13.258Z,1030.32
2023-01-29T07:03:13.225Z,1030.36
2023-01-29T07:04:13.211Z,1030.38
2023-01-29T07:05:13.218Z,1030.37
2023-01-29T07:06:13.212Z,1030.42
2023-01-29T07:07:13.304Z,1030.48
2023-01-29T07:08:13.226Z,1030.48
2023-01-29T07:09:13.231Z,1030.57
2023-01-29T07:10:13.216Z,1030.59
2023-01-29T07:11:13.211Z,1030.65
2023-01-29T07:12:13.230Z,1030.62
2023-01-29T07:13:13.228Z,1030.59
2023-01-29T07:14:13.214Z,1030.6
2023-01-29T07:15:13.225Z,1030.57
2023-01-29T07:16:13.239Z,1030.52
2023-01-29T07:17:13.218Z,1030.57
2023-01-29T07:18:13.231Z,1030.52
2023-01-29T07:19:13.222Z,1030.54
2023-01-29T07:20:13.220Z,1030.55
2023-01-29T07:21:13.220Z,1030.59
2023-01-29T07:22:13.227Z,1030.66
2023-01-29T07:23:13.219Z,1030.66
2023-01-29T07:24:13.267Z,1030.66
2023-01-29T07:25:13.227Z,1030.68
2023-01-29T07:26:13.228Z,1030.65
2023-01-29T07:27:13.220Z,1030.61
2023-01-29T07:28:13.233Z,1030.56
2023-01-29T07:29:13.217Z,1030.63
2023-01-29T07:30:13.207Z,1030.63
2023-01-29T07:31:13.377Z,1030.67
2023-01-29T07:32:13.247Z,1030.68
2023-01-29T07:33:13.346Z,1030.68
2023-01-29T07:34:13.221Z,1030.69
2023-01-29T07:35:13.218Z,1030.64
2023-01-29T07:36:13.219Z,1030.67
2023-01-29T07:37:13.207Z,1030.67
2023-01-29T07:38:13.218Z,1030.62
2023-01-29T07:39:13.223Z,1030.6
2023-01-29T07:40:13.216Z,1030.61
2023-01-29T07:41:13.202Z,1030.56
2023-01-29T07:42:13.205Z,1030.54
2023-01-29T07:43:13.217Z,1030.51
2023-01-29T07:44:13.203Z,1030.56
2023-01-29T07:45:13.205Z,1030.51
2023-01-29T07:46:13.325Z,1030.47
2023-01-29T07:47:13.232Z,1030.43
2023-01-29T07:48:13.238Z,1030.49
2023-01-29T07:49:13.214Z,1030.46
2023-01-29T07:50:13.204Z,1030.45
2023-01-29T07:51:13.200Z,1030.49
2023-01-29T07:52:13.202Z,1030.43
2023-01-29T07:53:13.214Z,1030.44
2023-01-29T07:54:13.222Z,1030.28
2023-01-29T07:55:13.202Z,1030.29
2023-01-29T07:56:13.201Z,1030.26
2023-01-29T07:57:13.200Z,1030.28
2023-01-29T07:58:13.222Z,1030.18
2023-01-29T07:59:13.203Z,1030.16
2023-01-29T08:00:13.216Z,1030.17
2023-01-29T08:01:13.316Z,1030.16
2023-01-29T08:02:13.262Z,1030.14
2023-01-29T08:03:13.219Z,1030.11
2023-01-29T08:04:13.205Z,1030.08
2023-01-29T08:05:13.200Z,1030.02
2023-01-29T08:06:13.196Z,1030.1
2023-01-29T08:07:13.208Z,1030.05
2023-01-29T08:08:13.216Z,1030.05
2023-01-29T08:09:13.229Z,1029.96
2023-01-29T08:10:13.219Z,1029.97
2023-01-29T08:11:13.209Z,1029.97
2023-01-29T08:12:13.213Z,1029.98
2023-01-29T08:13:13.234Z,1029.97
2023-01-29T08:14:13.217Z,1029.92
2023-01-29T08:15:13.235Z,1029.93
2023-01-29T08:16:13.265Z,1029.97
2023-01-29T08:17:13.216Z,1029.97
2023-01-29T08:18:13.255Z,1029.99
2023-01-29T08:19:13.220Z,1029.94
2023-01-29T08:20:13.205Z,1029.94
2023-01-29T08:21:14.026Z,1029.94
2023-01-29T08:22:13.217Z,1029.92
2023-01-29T08:23:13.222Z,1029.94
2023-01-29T08:24:13.228Z,1029.9
2023-01-29T08:25:13.210Z,1029.94
2023-01-29T08:26:13.217Z,1029.96
2023-01-29T08:27:13.220Z,1029.95
2023-01-29T08:28:13.234Z,1029.9
2023-01-29T08:29:13.223Z,1029.93
2023-01-29T08:30:13.202Z,1029.93
2023-01-29T08:31:13.305Z,1029.82
2023-01-29T08:32:13.209Z,1029.8
2023-01-29T08:33:13.220Z,1029.71
2023-01-29T08:34:13.227Z,1029.71
2023-01-29T08:35:13.240Z,1029.67
2023-01-29T08:36:13.209Z,1029.67
2023-01-29T08:37:13.203Z,1029.65
2023-01-29T08:38:13.264Z,1029.7
2023-01-29T08:39:13.252Z,1029.68
2023-01-29T08:40:13.221Z,1029.68
2023-01-29T08:41:13.222Z,1029.69
2023-01-29T08:42:13.216Z,1029.69
2023-01-29T08:43:13.227Z,1029.69
2023-01-29T08:44:13.213Z,1029.61
2023-01-29T08:45:13.210Z,1029.59
2023-01-29T08:46:13.254Z,1029.53
2023-01-29T08:47:13.234Z,1029.56
2023-01-29T08:48:13.235Z,1029.64
2023-01-29T08:49:13.214Z,1029.64
2023-01-29T08:50:13.210Z,1029.64
2023-01-29T08:51:13.219Z,1029.51
2023-01-29T08:52:13.215Z,1029.51
2023-01-29T08:53:13.242Z,1029.52
2023-01-29T08:54:13.222Z,1029.5
2023-01-29T08:55:13.208Z,1029.55
2023-01-29T08:56:13.206Z,1029.57
2023-01-29T08:57:13.203Z,1029.58
2023-01-29T08:58:13.216Z,1029.61
2023-01-29T08:59:13.204Z,1029.57
2023-01-29T09:00:13.214Z,1029.58
2023-01-29T09:01:13.271Z,1029.55
2023-01-29T09:02:13.253Z,1029.59
2023-01-29T09:03:13.217Z,1029.66
2023-01-29T09:04:13.200Z,1029.66
2023-01-29T09:05:13.203Z,1029.73
2023-01-29T09:06:13.214Z,1029.7
2023-01-29T09:07:13.234Z,1029.69
2023-01-29T09:08:13.218Z,1029.71
2023-01-29T09:09:13.220Z,1029.71
2023-01-29T09:10:13.211Z,1029.69
2023-01-29T09:11:13.206Z,1029.63
2023-01-29T09:12:13.215Z,1029.64
2023-01-29T09:13:13.340Z,1029.64
2023-01-29T09:14:13.195Z,1029.66
2023-01-29T09:15:13.221Z,1029.56
2023-01-29T09:16:13.206Z,1029.52
2023-01-29T09:17:13.221Z,1029.47
2023-01-29T09:18:13.224Z,1029.47
2023-01-29T09:19:13.211Z,1029.4
2023-01-29T09:20:13.234Z,1029.36
2023-01-29T09:21:13.214Z,1029.32
2023-01-29T09:22:13.218Z,1029.33
2023-01-29T09:23:13.233Z,1029.3
2023-01-29T09:24:13.224Z,1029.27
2023-01-29T09:25:13.200Z,1029.24
2023-01-29T09:26:13.244Z,1029.17
2023-01-29T09:27:13.209Z,1029.1
2023-01-29T09:28:13.227Z,1029.09
2023-01-29T09:29:13.220Z,1029.19
2023-01-29T09:30:13.231Z,1029.19
2023-01-29T09:31:13.271Z,1029.18
2023-01-29T09:32:13.283Z,1029.18
2023-01-29T09:33:13.225Z,1029.22
2023-01-29T09:34:13.213Z,1029.18
2023-01-29T09:35:13.211Z,1029.19
2023-01-29T09:36:13.207Z,1029.27
2023-01-29T09:37:13.207Z,1029.23
2023-01-29T09:38:13.212Z,1029.28
2023-01-29T09:39:13.233Z,1029.32
2023-01-29T09:40:13.200Z,1029.32
2023-01-29T09:41:13.212Z,1029.39
2023-01-29T09:42:13.208Z,1029.46
2023-01-29T09:43:13.220Z,1029.42
2023-01-29T09:44:13.210Z,1029.46
2023-01-29T09:45:13.218Z,1029.47
2023-01-29T09:46:13.256Z,1029.45
2023-01-29T09:47:13.225Z,1029.51
2023-01-29T09:48:13.228Z,1029.48
2023-01-29T09:49:13.211Z,1029.43
2023-01-29T09:50:13.214Z,1029.35
2023-01-29T09:51:13.245Z,1029.39
2023-01-29T09:52:13.201Z,1029.39
2023-01-29T09:53:13.223Z,1029.28
2023-01-29T09:54:13.243Z,1029.26
2023-01-29T09:55:13.215Z,1029.28
2023-01-29T09:56:13.211Z,1029.21
2023-01-29T09:57:13.214Z,1029.21
2023-01-29T09:58:13.227Z,1029.23
2023-01-29T09:59:13.215Z,1029.27
2023-01-29T10:00:13.202Z,1029.27
2023-01-29T10:01:13.308Z,1029.22
2023-01-29T10:02:13.324Z,1029.26
2023-01-29T10:03:13.249Z,1029.22
2023-01-29T10:04:13.261Z,1029.2
2023-01-29T10:05:13.298Z,1029.21
2023-01-29T10:06:13.208Z,1029.17
2023-01-29T10:07:13.217Z,1029.17
2023-01-29T10:08:13.225Z,1029.07
2023-01-29T10:09:13.219Z,1029.1
2023-01-29T10:10:13.216Z,1029.07
2023-01-29T10:11:13.209Z,1029.04
2023-01-29T10:12:13.195Z,1029.11
2023-01-29T10:13:13.234Z,1029.09
2023-01-29T10:14:13.218Z,1029.07
2023-01-29T10:15:13.212Z,1029.11
2023-01-29T10:16:13.205Z,1029.15
2023-01-29T10:17:13.249Z,1029.16
2023-01-29T10:18:13.216Z,1029.12
2023-01-29T10:19:13.207Z,1029.14
2023-01-29T10:20:13.211Z,1029.12
2023-01-29T10:21:13.208Z,1029.15
2023-01-29T10:22:13.201Z,1029.12
2023-01-29T10:23:13.215Z,1029.04
2023-01-29T10:24:13.221Z,1029.09
2023-01-29T10:25:13.199Z,1029.06
2023-01-29T10:26:13.239Z,1029.06
2023-01-29T10:27:13.217Z,1029.03
2023-01-29T10:28:13.236Z,1029.04
2023-01-29T10:29:13.698Z,1029
2023-01-29T10:30:13.223Z,1029.05
2023-01-29T10:31:13.342Z,1028.99
2023-01-29T10:32:13.336Z,1028.99
2023-01-29T10:33:13.212Z,1029
2023-01-29T10:34:13.201Z,1028.99
2023-01-29T10:35:13.239Z,1028.99
2023-01-29T10:36:13.203Z,1028.97
2023-01-29T10:37:13.361Z,1029.01
2023-01-29T10:38:13.211Z,1029.04
2023-01-29T10:39:13.223Z,1029.03
2023-01-29T10:40:13.209Z,1028.99
2023-01-29T10:41:13.215Z,1029
2023-01-29T10:43:01.417Z,1029.01
2023-01-29T10:44:00.290Z,1029.05
2023-01-29T10:45:00.275Z,1029.07
2023-01-29T10:46:00.267Z,1029.07
2023-01-29T10:47:00.329Z,1029.07
2023-01-29T10:48:00.263Z,1029.06
2023-01-29T10:49:00.279Z,1029.06
2023-01-29T10:50:00.284Z,1029.07
2023-01-29T10:51:00.268Z,1029.06
2023-01-29T10:52:00.275Z,1029.02
2023-01-29T10:53:00.265Z,1029.02
2023-01-29T10:54:00.283Z,1029.01
2023-01-29T10:55:00.324Z,1028.99
2023-01-29T10:56:01.221Z,1028.97
2023-01-29T10:57:00.265Z,1028.94
2023-01-29T10:58:02.180Z,1028.91
2023-01-29T10:59:00.358Z,1028.91
2023-01-29T11:00:00.268Z,1028.83
2023-01-29T11:01:00.266Z,1028.79
2023-01-29T11:02:00.372Z,1028.82
2023-01-29T11:03:00.407Z,1028.78
2023-01-29T11:04:00.275Z,1028.76
2023-01-29T11:05:00.257Z,1028.72
2023-01-29T11:06:00.261Z,1028.7
2023-01-29T11:07:00.262Z,1028.66
2023-01-29T11:08:00.266Z,1028.66
2023-01-29T11:09:00.269Z,1028.68
2023-01-29T11:10:00.306Z,1028.71
2023-01-29T11:11:00.257Z,1028.65
2023-01-29T11:12:00.403Z,1028.65
2023-01-29T11:13:00.254Z,1028.65
2023-01-29T11:14:00.271Z,1028.52
2023-01-29T11:15:00.264Z,1028.52
2023-01-29T11:16:00.282Z,1028.49
2023-01-29T11:17:00.346Z,1028.48
2023-01-29T11:18:00.265Z,1028.47
2023-01-29T11:19:00.277Z,1028.45
2023-01-29T11:20:00.274Z,1028.45
2023-01-29T11:21:00.262Z,1028.39
2023-01-29T11:22:00.254Z,1028.38
2023-01-29T11:23:00.260Z,1028.38
2023-01-29T11:24:00.264Z,1028.32
2023-01-29T11:25:00.266Z,1028.32
2023-01-29T11:26:00.343Z,1028.34
2023-01-29T11:27:00.265Z,1028.3
2023-01-29T11:28:00.251Z,1028.29
2023-01-29T11:29:00.275Z,1028.26
2023-01-29T11:30:00.268Z,1028.26
2023-01-29T11:31:00.315Z,1028.14
2023-01-29T11:32:00.242Z,1028.14
2023-01-29T11:33:00.245Z,1028.12
2023-01-29T11:34:00.277Z,1028.12
2023-01-29T11:35:00.252Z,1028.14
2023-01-29T11:36:00.254Z,1028.15
2023-01-29T11:37:00.252Z,1028.12
2023-01-29T11:38:00.241Z,1028.1
2023-01-29T11:39:00.273Z,1028.07
2023-01-29T11:40:00.275Z,1028.05
2023-01-29T11:41:00.261Z,1028.02
2023-01-29T11:42:00.269Z,1027.94
2023-01-29T11:43:00.239Z,1027.94
2023-01-29T11:44:00.279Z,1027.98
2023-01-29T11:45:00.272Z,1027.95
2023-01-29T11:46:00.241Z,1027.98
2023-01-29T11:47:00.382Z,1027.9
2023-01-29T11:48:00.248Z,1027.94
2023-01-29T11:49:09.920Z,1027.99
2023-01-29T11:50:00.249Z,1027.9
2023-01-29T11:51:00.248Z,1027.96
2023-01-29T11:52:00.255Z,1027.93
2023-01-29T11:53:00.239Z,1027.89
2023-01-29T11:54:00.267Z,1027.88
2023-01-29T11:55:00.270Z,1027.92
2023-01-29T11:56:00.256Z,1027.92
2023-01-29T11:57:00.259Z,1027.94
2023-01-29T11:58:00.271Z,1027.94
2023-01-29T11:59:00.265Z,1027.86
2023-01-29T12:00:00.252Z,1027.82
2023-01-29T12:01:00.255Z,1027.83
2023-01-29T12:02:00.253Z,1027.8
2023-01-29T12:03:00.253Z,1027.81
2023-01-29T12:04:00.368Z,1027.78
2023-01-29T12:05:00.269Z,1027.83
2023-01-29T12:06:00.359Z,1027.84
2023-01-29T12:07:00.249Z,1027.82
2023-01-29T12:08:00.251Z,1027.77